»·PEaware :: N27JP KAJO-KVCV

N27JP :: KAJO-KVCV

FLIGHT INFORMATION

Flight Status: Arrived
Operator: Privately registered:
United States
More flights under this callsign
Pilot: Weston J. (31543)
Aircraft: CESSNA 172 SKYHAWK
(C172)
More flights by this aircraft type
Origin: KAJO Corona Mun
United States
Destination: KVCV Socal Logistics
United States
More flights between these airports :: More routes between these airports
Route: PDZ V442 APLES
File this flight plan on PilotEdge
Remarks: Practice for the I-11
Altitude:
(Current/Filed)
9,000ft
Speed:
(Current/Filed)
110kts
Departed: 02-Jan-21 12:42 PM
Arrived: 02-Jan-21 01:59 PM
Distance/Time
Traveled:
43nm/1:17
Distance/Time
To Go:
Arrived

Flight Plot

Page will automatically refresh every two minutes.


Map Options




Map Legend


Flown Route
Filed Route
Departure Airport
Arrival Airport
Navaid (VOR, NDB)
Fix

Horizontal Profiles

Position Reports

Time Latitude Longitude Heading Altitude Ground
Speed
02-Jan-21 12:14 33.896786 -117.597953 90 537ft 0kts
02-Jan-21 12:15 33.896786 -117.597953 90 537ft 0kts
02-Jan-21 12:17 33.896786 -117.597953 90 537ft 0kts
02-Jan-21 12:17 33.896786 -117.597953 90 537ft 0kts
02-Jan-21 12:18 33.896786 -117.597953 90 537ft 0kts
02-Jan-21 12:19 33.896786 -117.597953 90 537ft 0kts
02-Jan-21 12:20 33.896786 -117.597953 90 537ft 0kts
02-Jan-21 12:21 33.896786 -117.597953 90 537ft 0kts
02-Jan-21 12:22 33.896786 -117.597953 90 537ft 0kts
02-Jan-21 12:23 33.896786 -117.597953 90 537ft 0kts
02-Jan-21 12:24 33.896786 -117.597953 90 537ft 0kts
02-Jan-21 12:25 33.896786 -117.597953 90 537ft 0kts
02-Jan-21 12:26 33.896786 -117.597953 90 537ft 0kts
02-Jan-21 12:29 33.896786 -117.597953 90 537ft 0kts
02-Jan-21 12:30 33.896786 -117.597953 90 537ft 0kts
02-Jan-21 12:31 33.896786 -117.597953 90 537ft 0kts
02-Jan-21 12:32 33.896786 -117.597953 90 537ft 0kts
02-Jan-21 12:33 33.896786 -117.597953 90 537ft 0kts
02-Jan-21 12:34 33.896786 -117.597953 90 537ft 0kts
02-Jan-21 12:35 33.896786 -117.597953 90 537ft 0kts
02-Jan-21 12:36 33.896786 -117.597953 90 537ft 0kts
02-Jan-21 12:37 33.896786 -117.597953 90 537ft 0kts
02-Jan-21 12:38 33.896786 -117.597953 90 537ft 0kts
02-Jan-21 12:39 33.896892 -117.597790 23 537ft 4kts
02-Jan-21 12:40 33.897386 -117.597580 9 537ft 3kts
02-Jan-21 12:41 33.897612 -117.607539 268 628ft 88kts
02-Jan-21 12:42 33.908005 -117.604754 94 1351ft 97kts
02-Jan-21 12:43 33.914684 -117.573750 77 2169ft 94kts
02-Jan-21 12:44 33.918138 -117.542689 80 3002ft 90kts
02-Jan-21 12:45 33.927611 -117.517492 38 3828ft 79kts
02-Jan-21 12:46 33.944757 -117.504400 322 4494ft 77kts
02-Jan-21 12:47 33.931988 -117.515949 165 5143ft 95kts
02-Jan-21 12:48 33.913763 -117.529742 256 5689ft 78kts
02-Jan-21 12:49 33.928275 -117.536381 23 6205ft 86kts
02-Jan-21 12:50 33.947925 -117.520452 24 6791ft 83kts
02-Jan-21 12:51 33.941974 -117.496939 179 7310ft 96kts
02-Jan-21 12:52 33.926032 -117.514473 246 7865ft 76kts
02-Jan-21 12:53 33.913251 -117.532761 288 8406ft 57kts
02-Jan-21 12:54 33.927936 -117.524149 27 8661ft 93kts
02-Jan-21 12:55 33.951773 -117.509716 17 8985ft 96kts
02-Jan-21 12:56 33.975506 -117.495548 16 9379ft 94kts
02-Jan-21 12:57 33.998800 -117.481631 15 9790ft 91kts
02-Jan-21 12:58 34.021423 -117.468131 14 10207ft 91kts
02-Jan-21 12:59 34.044190 -117.454476 13 10609ft 91kts
02-Jan-21 13:00 34.067023 -117.440779 13 10991ft 93kts
02-Jan-21 13:01 34.091611 -117.425711 15 10988ft 98kts
02-Jan-21 13:02 34.116113 -117.411136 13 10972ft 99kts
02-Jan-21 13:03 34.140941 -117.396197 13 10968ft 99kts
02-Jan-21 13:04 34.165734 -117.381264 13 10967ft 98kts
02-Jan-21 13:05 34.190345 -117.366427 13 10967ft 98kts
02-Jan-21 13:06 34.215041 -117.351528 13 10967ft 98kts
02-Jan-21 13:07 34.239531 -117.336745 14 10957ft 97kts
02-Jan-21 13:08 34.263884 -117.322041 13 10980ft 94kts
02-Jan-21 13:09 34.287707 -117.307692 13 11011ft 96kts
02-Jan-21 13:10 34.312007 -117.292978 13 11027ft 97kts
02-Jan-21 13:11 34.336510 -117.278128 13 11025ft 98kts
02-Jan-21 13:12 34.361161 -117.263191 13 11023ft 99kts
02-Jan-21 13:13 34.385823 -117.248217 13 11022ft 99kts
02-Jan-21 13:14 34.410511 -117.233164 17 10918ft 98kts
02-Jan-21 13:15 34.432755 -117.219284 14 10375ft 85kts
02-Jan-21 13:16 34.453814 -117.206896 12 9838ft 87kts
02-Jan-21 13:17 34.475192 -117.193983 13 9330ft 85kts
02-Jan-21 13:18 34.496188 -117.181267 12 8905ft 83kts
02-Jan-21 13:19 34.525689 -117.163600 19 8469ft 135kts
02-Jan-21 13:20 34.559783 -117.146789 2 8000ft 126kts
02-Jan-21 13:21 34.593830 -117.143025 352 7742ft 119kts
02-Jan-21 13:22 34.626563 -117.145995 345 7531ft 117kts
02-Jan-21 13:23 34.657968 -117.155170 336 7297ft 114kts
02-Jan-21 13:24 34.687108 -117.169961 327 7063ft 113kts
02-Jan-21 13:25 34.713666 -117.189764 319 6826ft 111kts
02-Jan-21 13:26 34.737164 -117.213968 312 6592ft 109kts
02-Jan-21 13:27 34.756354 -117.240653 304 6609ft 104kts
02-Jan-21 13:28 34.772241 -117.270368 297 6608ft 104kts
02-Jan-21 13:29 34.784599 -117.302691 290 6358ft 106kts
02-Jan-21 13:30 34.793158 -117.337583 282 5677ft 109kts
02-Jan-21 13:31 34.795127 -117.373038 239 5193ft 99kts
02-Jan-21 13:32 34.768217 -117.376038 186 5208ft 101kts
02-Jan-21 13:33 34.740157 -117.377463 191 5192ft 102kts
02-Jan-21 13:34 34.709482 -117.380255 190 4580ft 112kts
02-Jan-21 13:35 34.678286 -117.382645 186 3957ft 113kts
02-Jan-21 13:36 34.648842 -117.385917 191 3392ft 95kts
02-Jan-21 13:37 34.621338 -117.385868 175 3552ft 105kts
02-Jan-21 13:38 34.602030 -117.401313 266 4256ft 93kts
02-Jan-21 13:39 34.615720 -117.428242 289 4836ft 97kts
02-Jan-21 13:41 34.621668 -117.460489 274 5311ft 96kts
02-Jan-21 13:42 34.625729 -117.491777 275 5872ft 91kts
02-Jan-21 13:43 34.630219 -117.523486 276 6025ft 99kts
02-Jan-21 13:44 34.622927 -117.550148 202 5419ft 100kts
02-Jan-21 13:45 34.594812 -117.551486 181 4635ft 102kts
02-Jan-21 13:46 34.572306 -117.535643 126 4069ft 94kts
02-Jan-21 13:47 34.570413 -117.504851 69 4016ft 101kts
02-Jan-21 13:48 34.576742 -117.471917 74 3943ft 99kts
02-Jan-21 13:49 34.582439 -117.439240 75 3896ft 96kts
02-Jan-21 13:50 34.588320 -117.407078 74 3801ft 100kts
02-Jan-21 13:51 34.602334 -117.378453 50 3689ft 98kts
02-Jan-21 13:52 34.612929 -117.352402 135 3492ft 86kts
02-Jan-21 13:53 34.599473 -117.366324 228 3273ft 74kts
02-Jan-21 13:54 34.584777 -117.385592 234 3573ft 80kts
02-Jan-21 13:54 34.593706 -117.401984 357 3861ft 92kts
02-Jan-21 13:56 34.615619 -117.375559 45 3783ft 91kts
02-Jan-21 13:57 34.616037 -117.352414 182 3370ft 84kts
02-Jan-21 13:57 34.602653 -117.364025 224 2950ft 67kts
02-Jan-21 13:58 34.594324 -117.372737 179 2863ft 22kts
02-Jan-21 13:59 34.593700 -117.372724 181 2864ft 9kts
02-Jan-21 14:01 34.591076 -117.371737 133 2869ft 0kts

Navigation Log

Ident Type
Flight plan parsing failed, navigation log unavailable